Time;durP1;ratioP1;P1;durP2;ratioP2;P2;SDS_P1;SDS_P2;PMS_P1;PMS_P2;Temp;Humidity;BMP_temperature;BMP_pressure;BME280_temperature;BME280_humidity;BME280_pressure;Samples;Min_cycle;Max_cycle;Signal;HPM_P1;HPM_P2
2022/09/18 00:01:42;;;;;;;13.63;8.00;;;;;;;14.58;58.74;98338.13;4960634;28;20053;-69
2022/09/18 00:04:12;;;;;;;15.13;8.77;;;;;;;14.62;58.90;98325.16;4960620;28;20042;-69
2022/09/18 00:06:39;;;;;;;14.03;8.67;;;;;;;14.58;59.07;98345.31;4993068;28;20042;-68
2022/09/18 00:09:08;;;;;;;14.23;8.88;;;;;;;14.55;59.44;98345.72;4993135;28;20277;-69
2022/09/18 00:11:37;;;;;;;23.67;9.65;;;;;;;14.57;59.59;98335.66;4976740;28;20046;-69
2022/09/18 00:14:08;;;;;;;16.90;8.95;;;;;;;14.70;59.26;98348.94;4976796;28;20108;-69
2022/09/18 00:16:34;;;;;;;16.38;9.00;;;;;;;14.53;59.26;98340.59;4992804;28;20052;-69
2022/09/18 00:19:00;;;;;;;16.27;9.05;;;;;;;14.44;59.41;98333.88;4976782;28;20362;-69
2022/09/18 00:21:26;;;;;;;15.85;8.23;;;;;;;14.36;59.68;98326.09;4944785;28;20050;-69
2022/09/18 00:23:55;;;;;;;13.18;8.35;;;;;;;14.51;59.87;98333.84;4977271;28;20100;-69
2022/09/18 00:26:24;;;;;;;16.85;8.95;;;;;;;14.33;60.29;98326.53;4976554;28;20041;-69
2022/09/18 00:28:50;;;;;;;17.23;8.57;;;;;;;14.35;60.19;98339.69;4980902;28;20514;-69
2022/09/18 00:31:25;;;;;;;11.77;7.68;;;;;;;14.46;60.16;98329.16;4980335;28;20111;-70
2022/09/18 00:33:51;;;;;;;15.40;8.30;;;;;;;14.25;60.17;98326.81;4980583;28;20046;-69
2022/09/18 00:36:17;;;;;;;14.95;7.88;;;;;;;14.39;60.19;98332.91;4995596;28;20587;-69
2022/09/18 00:38:44;;;;;;;10.65;7.80;;;;;;;14.32;60.38;98340.94;4947224;28;20045;-69
2022/09/18 00:41:13;;;;;;;17.95;8.05;;;;;;;14.30;60.09;98289.56;4963078;28;20427;-69
2022/09/18 00:43:38;;;;;;;13.52;7.65;;;;;;;14.42;59.84;98317.22;4979479;28;20484;-68
2022/09/18 00:46:07;;;;;;;14.35;7.93;;;;;;;14.57;59.76;98319.63;4962804;28;20041;-69
2022/09/18 00:49:04;;;;;;;13.82;8.05;;;;;;;14.65;59.75;98333.53;4964713;28;20498;-69
2022/09/18 00:51:32;;;;;;;14.27;7.50;;;;;;;14.56;59.66;98312.66;4963489;28;20045;-68
2022/09/18 00:54:20;;;;;;;13.38;8.10;;;;;;;14.62;59.59;98315.25;4963869;28;20100;-69
2022/09/18 00:56:47;;;;;;;14.15;7.80;;;;;;;14.51;59.78;98315.16;4964016;28;20119;-69
2022/09/18 00:59:21;;;;;;;11.15;7.97;;;;;;;14.56;59.86;98315.31;4980245;28;20387;-69
2022/09/18 01:01:47;;;;;;;15.93;8.70;;;;;;;14.37;59.85;98324.25;4979930;28;20384;-70
2022/09/18 01:04:13;;;;;;;14.15;8.57;;;;;;;14.40;59.59;98316.66;4948115;28;20046;-70
2022/09/18 01:06:45;;;;;;;15.18;8.95;;;;;;;14.55;59.77;98325.19;4964292;28;20128;-69
2022/09/18 01:09:12;;;;;;;13.52;8.85;;;;;;;14.14;59.91;98303.41;4964377;28;20052;-70
2022/09/18 01:11:48;;;;;;;18.52;10.15;;;;;;;14.53;59.93;98321.91;4980673;28;20057;-70
2022/09/18 01:14:36;;;;;;;21.85;10.85;;;;;;;14.56;59.63;98326.00;4964045;28;20403;-70
2022/09/18 01:17:01;;;;;;;15.48;9.48;;;;;;;14.12;60.72;98328.66;4979967;28;20475;-70
2022/09/18 01:19:59;;;;;;;18.83;10.15;;;;;;;14.41;60.30;98325.47;4963987;28;20065;-69
2022/09/18 01:23:02;;;;;;;17.67;9.05;;;;;;;14.35;60.46;98324.47;4941152;28;20416;-68
2022/09/18 01:25:56;;;;;;;18.75;9.80;;;;;;;14.40;60.32;98334.53;4925337;28;20072;-68
2022/09/18 01:28:32;;;;;;;16.23;9.38;;;;;;;14.35;60.50;98334.34;4924428;28;20064;-68
2022/09/18 01:31:03;;;;;;;15.88;9.32;;;;;;;14.21;61.03;98322.03;4956511;28;20718;-68
2022/09/18 01:33:50;;;;;;;19.05;9.95;;;;;;;14.17;60.94;98320.84;4956247;28;20057;-68
2022/09/18 01:36:18;;;;;;;17.48;9.80;;;;;;;14.04;61.24;98299.56;4925770;28;20042;-68
2022/09/18 01:38:47;;;;;;;19.00;10.02;;;;;;;14.07;61.13;98337.31;4957105;28;20046;-68
2022/09/18 01:41:23;;;;;;;20.17;10.30;;;;;;;14.37;60.63;98327.75;4941113;28;20054;-68
2022/09/18 01:43:53;;;;;;;19.65;10.48;;;;;;;14.27;60.99;98331.94;4956394;28;20043;-68
2022/09/18 01:46:19;;;;;;;20.92;10.20;;;;;;;14.06;60.94;98332.19;4940690;28;20090;-68
2022/09/18 01:48:57;;;;;;;28.00;10.63;;;;;;;14.19;61.14;98340.94;4957376;28;20149;-68
2022/09/18 01:51:48;;;;;;;20.25;10.13;;;;;;;14.22;60.92;98329.03;4941778;28;20454;-68
2022/09/18 01:54:17;;;;;;;21.87;11.20;;;;;;;14.18;60.92;98328.63;4941325;28;20513;-68
2022/09/18 01:56:51;;;;;;;23.85;10.93;;;;;;;14.16;60.88;98321.88;4941214;28;20735;-68
2022/09/18 01:59:29;;;;;;;20.70;11.00;;;;;;;14.22;60.71;98332.50;4928627;28;20038;-68
2022/09/18 02:02:12;;;;;;;17.85;10.65;;;;;;;14.18;60.80;98338.50;4932814;28;20133;-71
2022/09/18 02:04:41;;;;;;;23.08;11.60;;;;;;;14.14;61.38;98347.97;4960692;28;20096;-69
2022/09/18 02:07:23;;;;;;;16.23;10.70;;;;;;;14.07;60.71;98320.50;4960077;28;20125;-69
2022/09/18 02:09:49;;;;;;;24.98;11.88;;;;;;;13.78;61.74;98342.34;4943683;28;20074;-69
2022/09/18 02:12:20;;;;;;;24.98;12.38;;;;;;;14.08;61.50;98338.97;4959745;28;20082;-69
2022/09/18 02:14:52;;;;;;;27.23;12.40;;;;;;;14.16;61.37;98344.03;4959673;28;20081;-68
2022/09/18 02:17:58;;;;;;;32.65;12.75;;;;;;;14.13;60.95;98333.78;4943943;28;20918;-68
2022/09/18 02:20:35;;;;;;;24.75;12.93;;;;;;;14.08;61.46;98349.66;4929270;28;20078;-68
2022/09/18 02:23:04;;;;;;;24.60;12.40;;;;;;;14.13;61.32;98349.00;4960050;28;20053;-68
2022/09/18 02:25:36;;;;;;;26.30;13.00;;;;;;;14.17;61.27;98340.34;4927801;28;20062;-69
2022/09/18 02:28:03;;;;;;;24.77;12.48;;;;;;;14.04;61.58;98329.72;4943441;28;20127;-69
2022/09/18 02:30:29;;;;;;;28.20;13.18;;;;;;;13.93;61.23;98332.25;4944623;28;20078;-68
2022/09/18 02:32:55;;;;;;;29.50;13.18;;;;;;;14.01;61.50;98337.34;4978332;28;20064;-69
2022/09/18 02:35:26;;;;;;;27.40;13.32;;;;;;;14.14;61.55;98340.78;4963047;28;20477;-69
2022/09/18 02:38:03;;;;;;;26.75;13.40;;;;;;;14.04;61.33;98320.91;4946773;28;20069;-68
2022/09/18 02:40:37;;;;;;;25.63;12.68;;;;;;;14.16;61.42;98337.91;4947526;28;20046;-69
2022/09/18 02:43:04;;;;;;;26.48;13.45;;;;;;;13.77;61.59;98324.69;4947545;28;20073;-69
2022/09/18 02:46:08;;;;;;;30.42;14.15;;;;;;;14.22;61.38;98353.06;4958886;28;20057;-69
2022/09/18 02:48:48;;;;;;;29.45;14.80;;;;;;;14.22;61.37;98359.22;4943683;28;20046;-71
2022/09/18 02:51:34;;;;;;;28.10;13.32;;;;;;;14.20;61.33;98358.63;4927889;28;20046;-70
2022/09/18 02:54:07;;;;;;;30.55;14.25;;;;;;;14.10;61.58;98368.91;4943212;28;20047;-70
2022/09/18 02:56:49;;;;;;;32.13;14.57;;;;;;;14.20;61.21;98363.97;4927310;28;20093;-70
2022/09/18 02:59:32;;;;;;;30.67;14.80;;;;;;;14.19;61.34;98353.50;4958574;28;20485;-69
2022/09/18 03:01:58;;;;;;;30.65;14.40;;;;;;;13.96;61.66;98358.50;4942754;28;20042;-68
2022/09/18 03:04:27;;;;;;;28.33;14.13;;;;;;;13.87;62.06;98354.44;4958865;28;20068;-69
2022/09/18 03:06:59;;;;;;;30.67;15.18;;;;;;;13.88;61.95;98364.91;4959004;28;20559;-68
2022/09/18 03:09:25;;;;;;;29.85;14.68;;;;;;;13.85;62.16;98361.81;4941947;28;20808;-71
2022/09/18 03:11:54;;;;;;;32.58;15.27;;;;;;;13.83;62.06;98361.22;4929594;28;20137;-68
2022/09/18 03:14:20;;;;;;;29.58;14.35;;;;;;;13.86;61.93;98366.13;4958681;28;20362;-69
2022/09/18 03:16:46;;;;;;;35.63;14.68;;;;;;;13.85;62.05;98364.50;4943661;28;20098;-68
2022/09/18 03:19:13;;;;;;;29.10;15.30;;;;;;;13.90;61.78;98357.50;4958429;28;20208;-69
2022/09/18 03:21:41;;;;;;;32.97;15.55;;;;;;;13.92;61.75;98367.94;4942720;28;20063;-69
2022/09/18 03:24:12;;;;;;;39.83;16.35;;;;;;;13.95;61.83;98362.19;4943303;28;20485;-66
2022/09/18 03:26:40;;;;;;;36.78;17.65;;;;;;;13.92;61.87;98355.44;4957846;28;20059;-66
2022/09/18 03:29:10;;;;;;;31.38;15.50;;;;;;;14.11;61.58;98349.22;4974682;28;20039;-67
2022/09/18 03:31:39;;;;;;;35.03;15.32;;;;;;;14.05;61.79;98371.44;4940426;28;20046;-66
2022/09/18 03:34:06;;;;;;;32.85;16.38;;;;;;;13.90;61.85;98340.69;4940576;28;20508;-66
2022/09/18 03:36:32;;;;;;;32.00;15.65;;;;;;;14.11;61.40;98361.75;4939808;28;20065;-65
2022/09/18 03:38:58;;;;;;;29.48;14.85;;;;;;;14.08;61.36;98362.16;4956265;28;20039;-65
2022/09/18 03:41:24;;;;;;;32.30;16.00;;;;;;;14.12;61.28;98356.19;4940156;28;20102;-66
2022/09/18 03:43:50;;;;;;;32.13;15.27;;;;;;;14.11;61.49;98361.75;4939967;28;20400;-66
2022/09/18 03:46:21;;;;;;;33.67;15.68;;;;;;;14.26;61.13;98357.81;4941441;28;20054;-66
2022/09/18 03:48:51;;;;;;;27.42;15.32;;;;;;;14.36;60.74;98325.31;4943038;28;20053;-66
2022/09/18 03:51:19;;;;;;;33.10;15.27;;;;;;;14.45;61.02;98356.06;4942378;28;20047;-66
2022/09/18 03:53:46;;;;;;;30.00;14.93;;;;;;;14.53;60.55;98350.50;4957812;28;20093;-66
2022/09/18 03:56:26;;;;;;;28.48;14.00;;;;;;;14.40;60.65;98363.91;4945773;28;20090;-66
2022/09/18 03:59:06;;;;;;;31.27;13.68;;;;;;;14.66;60.33;98359.25;4958034;28;20050;-66
2022/09/18 04:01:51;;;;;;;20.17;13.23;;;;;;;14.52;60.01;98332.81;4927657;28;20146;-66
2022/09/18 04:04:27;;;;;;;25.05;13.55;;;;;;;14.67;59.74;98354.69;4957397;28;20137;-66
2022/09/18 04:06:58;;;;;;;22.90;13.45;;;;;;;14.62;59.91;98354.53;4957851;28;20471;-65
2022/09/18 04:09:42;;;;;;;24.55;13.20;;;;;;;14.58;59.88;98342.63;4974090;28;20205;-66
2022/09/18 04:12:08;;;;;;;25.05;13.30;;;;;;;14.64;59.98;98353.28;4958402;28;20109;-66
2022/09/18 04:14:34;;;;;;;26.00;13.85;;;;;;;14.63;60.01;98349.00;4958226;28;20054;-66
2022/09/18 04:17:00;;;;;;;25.35;13.65;;;;;;;14.65;59.52;98341.56;4957651;28;20389;-66
2022/09/18 04:19:26;;;;;;;27.10;12.95;;;;;;;14.79;59.52;98358.34;4941234;28;20042;-65
2022/09/18 04:21:52;;;;;;;23.55;13.00;;;;;;;14.77;59.48;98361.25;4956966;28;20042;-66
2022/09/18 04:24:20;;;;;;;23.10;12.60;;;;;;;14.37;59.98;98314.41;4941706;28;20101;-67
2022/09/18 04:26:48;;;;;;;20.92;13.10;;;;;;;14.85;59.76;98352.13;4940580;28;20063;-68
2022/09/18 04:29:15;;;;;;;21.55;12.00;;;;;;;14.73;59.67;98354.66;4956582;28;20467;-66
2022/09/18 04:31:41;;;;;;;22.60;12.65;;;;;;;14.65;59.64;98356.78;4941609;28;20046;-66
2022/09/18 04:34:11;;;;;;;22.13;12.55;;;;;;;14.53;60.02;98353.97;4957783;28;20058;-66
2022/09/18 04:36:37;;;;;;;19.48;12.10;;;;;;;14.64;60.03;98349.78;4925288;28;20038;-65
2022/09/18 04:39:05;;;;;;;20.15;12.20;;;;;;;14.69;59.67;98348.13;4940711;28;20047;-65
2022/09/18 04:41:34;;;;;;;19.58;12.38;;;;;;;14.54;59.68;98323.56;4940929;28;20043;-65
2022/09/18 04:44:02;;;;;;;18.58;11.88;;;;;;;14.89;59.35;98353.34;4940840;28;20046;-65
2022/09/18 04:46:28;;;;;;;19.33;12.68;;;;;;;14.91;59.11;98351.28;4940584;28;20046;-65
2022/09/18 04:48:53;;;;;;;20.20;11.20;;;;;;;15.00;59.07;98356.16;4956767;28;20112;-66
2022/09/18 04:51:22;;;;;;;16.23;11.30;;;;;;;14.98;58.71;98355.53;4941238;28;20085;-68
2022/09/18 04:53:48;;;;;;;17.48;10.95;;;;;;;14.98;58.94;98352.84;4956600;28;20051;-67
2022/09/18 04:56:14;;;;;;;21.00;11.60;;;;;;;14.90;59.09;98346.94;4940575;28;20124;-66
2022/09/18 04:58:45;;;;;;;18.08;11.13;;;;;;;15.02;59.11;98353.25;4956586;28;20039;-65
2022/09/18 05:01:11;;;;;;;18.13;11.77;;;;;;;15.03;58.61;98355.72;4940707;28;20035;-65
2022/09/18 05:03:37;;;;;;;27.25;13.50;;;;;;;15.16;58.91;98344.06;4924683;28;20062;-65
2022/09/18 05:06:04;;;;;;;19.60;10.95;;;;;;;15.28;58.37;98347.69;4956949;28;20047;-65
2022/09/18 05:08:31;;;;;;;19.30;11.45;;;;;;;15.26;58.21;98336.38;4956470;28;20046;-65
2022/09/18 05:10:57;;;;;;;18.20;11.05;;;;;;;15.27;58.27;98336.16;4940550;28;20416;-66
2022/09/18 05:13:26;;;;;;;18.67;11.38;;;;;;;15.27;58.41;98329.97;4956263;28;20209;-65
2022/09/18 05:16:04;;;;;;;15.45;10.00;;;;;;;15.46;57.98;98333.53;4943494;28;20046;-65
2022/09/18 05:18:30;;;;;;;16.20;10.18;;;;;;;15.37;57.86;98313.44;4940770;28;20050;-65
2022/09/18 05:21:01;;;;;;;14.48;10.18;;;;;;;15.67;57.73;98327.81;4940960;28;20067;-65
2022/09/18 05:23:27;;;;;;;12.10;9.80;;;;;;;15.70;57.44;98340.75;4940721;28;20050;-65
2022/09/18 05:25:55;;;;;;;15.75;10.18;;;;;;;15.60;57.80;98335.88;4940625;28;20062;-66
2022/09/18 05:28:21;;;;;;;16.33;10.70;;;;;;;15.76;57.49;98345.19;4955882;28;20063;-65
2022/09/18 05:30:49;;;;;;;11.32;8.95;;;;;;;15.99;56.97;98313.22;4955988;28;20042;-65
2022/09/18 05:33:15;;;;;;;13.13;8.80;;;;;;;16.46;55.84;98323.13;4908355;28;20061;-65
2022/09/18 05:35:41;;;;;;;15.45;8.23;;;;;;;16.65;54.77;98320.19;4957272;28;20047;-65
2022/09/18 05:38:09;;;;;;;13.82;7.95;;;;;;;17.06;54.37;98327.41;4924454;28;20053;-65
2022/09/18 05:40:37;;;;;;;12.05;7.75;;;;;;;17.12;53.66;98312.22;4924519;28;20055;-65
2022/09/18 05:43:04;;;;;;;13.63;7.53;;;;;;;17.42;52.88;98307.59;4956020;28;20393;-66
2022/09/18 05:45:31;;;;;;;13.50;7.72;;;;;;;17.49;52.72;98314.50;4972992;28;20093;-66
2022/09/18 05:48:01;;;;;;;13.13;7.18;;;;;;;17.81;52.38;98314.94;4940944;28;20397;-66
2022/09/18 05:50:29;;;;;;;11.82;7.88;;;;;;;18.21;51.42;98307.72;4925506;28;20043;-67
2022/09/18 05:52:57;;;;;;;18.42;9.95;;;;;;;18.60;50.15;98308.78;4940557;28;20050;-67
2022/09/18 05:55:28;;;;;;;13.70;6.78;;;;;;;18.89;49.58;98315.75;4956004;28;20034;-68
2022/09/18 05:57:55;;;;;;;13.55;6.70;;;;;;;19.33;48.83;98320.28;4924748;28;20039;-67
2022/09/18 06:00:22;;;;;;;10.77;6.80;;;;;;;19.50;47.95;98304.91;4956178;28;20536;-67
2022/09/18 06:02:59;;;;;;;10.63;6.40;;;;;;;19.78;47.39;98318.25;4962835;28;20046;-67
2022/09/18 06:05:27;;;;;;;15.20;6.38;;;;;;;19.86;46.13;98332.13;4940461;28;20042;-67
2022/09/18 06:08:02;;;;;;;11.98;6.90;;;;;;;19.70;46.87;98334.84;4963429;28;20051;-67
2022/09/18 06:10:28;;;;;;;13.93;6.72;;;;;;;19.47;47.04;98327.78;4932468;28;20081;-66
2022/09/18 06:13:05;;;;;;;9.90;6.35;;;;;;;19.69;47.02;98325.97;4948944;28;20050;-67
2022/09/18 06:15:32;;;;;;;14.10;7.13;;;;;;;19.84;46.72;98326.16;4949307;28;20152;-69
2022/09/18 06:17:58;;;;;;;11.25;6.18;;;;;;;19.92;46.17;98317.66;4949571;28;20141;-67
2022/09/18 06:20:24;;;;;;;10.20;6.60;;;;;;;20.20;45.98;98318.56;4931656;28;20149;-67
2022/09/18 06:22:50;;;;;;;19.50;6.38;;;;;;;20.23;45.80;98320.75;4931880;28;20393;-67
2022/09/18 06:25:24;;;;;;;10.95;6.57;;;;;;;20.49;44.94;98322.69;4959935;28;20051;-67
2022/09/18 06:27:57;;;;;;;11.43;6.75;;;;;;;20.71;44.55;98328.88;4942768;28;20065;-67
2022/09/18 06:30:28;;;;;;;21.05;6.18;;;;;;;20.91;43.90;98307.47;4950911;28;20085;-67
2022/09/18 06:32:55;;;;;;;14.25;6.13;;;;;;;21.19;43.41;98320.69;4949317;28;20112;-67
2022/09/18 06:35:23;;;;;;;15.60;5.85;;;;;;;21.53;42.85;98328.25;4932506;28;20097;-67
2022/09/18 06:37:48;;;;;;;19.75;6.35;;;;;;;21.78;41.85;98330.34;4931281;28;20050;-68
2022/09/18 06:40:37;;;;;;;9.40;5.50;;;;;;;22.07;41.47;98345.09;4941683;28;20057;-69
2022/09/18 06:43:29;;;;;;;10.70;5.88;;;;;;;22.39;40.87;98337.69;4933721;28;20043;-68
2022/09/18 06:45:57;;;;;;;16.70;6.57;;;;;;;22.54;40.28;98323.44;4950652;28;20469;-69
2022/09/18 06:48:28;;;;;;;10.32;5.43;;;;;;;22.73;39.79;98343.50;4934444;28;20049;-68
2022/09/18 06:50:57;;;;;;;16.63;6.20;;;;;;;22.58;39.95;98313.69;4965931;28;20045;-69
2022/09/18 06:53:25;;;;;;;13.33;5.93;;;;;;;22.72;40.05;98320.22;4967869;28;20101;-65
2022/09/18 06:55:59;;;;;;;13.30;6.25;;;;;;;23.03;39.51;98311.06;4952405;28;20277;-68
2022/09/18 06:58:25;;;;;;;11.93;5.97;;;;;;;23.14;39.30;98324.34;4935594;28;20038;-69
2022/09/18 07:00:52;;;;;;;17.88;7.28;;;;;;;23.21;39.15;98333.03;4950370;28;20035;-71
2022/09/18 07:03:26;;;;;;;13.98;7.63;;;;;;;23.23;39.05;98330.84;4972342;28;20480;-72
2022/09/18 07:05:58;;;;;;;13.73;7.45;;;;;;;23.46;38.69;98321.41;4947548;28;20034;-69
2022/09/18 07:08:39;;;;;;;;;;;;;;;24.01;37.65;98334.06;4944602;28;20477;-69
2022/09/18 07:11:13;;;;;;;13.30;6.57;;;;;;;24.35;37.21;98325.00;4926141;28;19933;-67
2022/09/18 07:13:40;;;;;;;10.80;5.97;;;;;;;24.76;36.30;98317.47;4935265;28;20487;-68
2022/09/18 07:16:06;;;;;;;10.32;4.78;;;;;;;24.67;35.71;98333.53;4935498;28;20143;-69
2022/09/18 07:18:32;;;;;;;8.82;4.72;;;;;;;24.53;35.62;98309.97;4918157;28;20035;-68
2022/09/18 07:20:58;;;;;;;8.73;4.68;;;;;;;24.72;36.20;98316.41;4919138;28;20046;-68
2022/09/18 07:23:35;;;;;;;10.98;5.00;;;;;;;25.10;35.48;98296.56;4943552;28;20869;-69
2022/09/18 07:26:03;;;;;;;7.72;4.38;;;;;;;26.39;33.17;98284.66;4918872;28;20045;-69
2022/09/18 07:28:29;;;;;;;7.55;4.47;;;;;;;25.95;32.71;98286.81;4934983;28;20062;-70
2022/09/18 07:31:06;;;;;;;9.32;4.53;;;;;;;25.23;34.41;98279.63;4922320;28;20041;-70
2022/09/18 07:33:32;;;;;;;14.40;4.50;;;;;;;25.23;34.62;98266.06;4949435;28;20043;-68
2022/09/18 07:36:02;;;;;;;7.80;3.83;;;;;;;26.41;33.23;98264.22;4950567;28;20038;-69
2022/09/18 07:38:30;;;;;;;8.85;3.70;;;;;;;27.45;30.18;98256.63;4949156;28;20046;-69
2022/09/18 07:41:00;;;;;;;8.07;4.30;;;;;;;27.46;30.76;98250.06;4950484;28;20535;-69
2022/09/18 07:43:33;;;;;;;6.75;3.95;;;;;;;26.93;31.44;98246.84;4952787;28;20042;-69
2022/09/18 07:46:01;;;;;;;6.97;4.03;;;;;;;27.42;30.80;98258.03;4934128;28;20104;-69
2022/09/18 07:48:30;;;;;;;;;;;;;;;27.78;29.92;98250.81;4965374;28;20157;-69
2022/09/18 07:51:04;;;;;;;6.18;3.25;;;;;;;26.89;30.72;98245.03;4950374;28;20083;-69
2022/09/18 07:53:32;;;;;;;9.82;3.88;;;;;;;25.51;33.08;98242.72;4935112;28;20464;-68
2022/09/18 07:55:59;;;;;;;7.00;3.95;;;;;;;24.69;35.03;98241.72;4929723;28;20189;-69
2022/09/18 07:58:25;;;;;;;8.18;4.47;;;;;;;23.67;36.58;98225.41;4932996;28;20552;-70
2022/09/18 08:01:04;;;;;;;9.88;4.25;;;;;;;23.93;36.97;98209.81;4937180;28;20049;-71
2022/09/18 08:03:37;;;;;;;6.57;4.13;;;;;;;23.78;36.98;98209.91;4937738;28;20077;-73
2022/09/18 08:06:09;;;;;;;8.07;4.00;;;;;;;24.79;35.88;98200.13;4936728;28;20424;-72
2022/09/18 08:08:36;;;;;;;6.93;3.83;;;;;;;25.99;33.77;98208.97;4934359;28;20056;-72
2022/09/18 08:11:21;;;;;;;8.20;4.03;;;;;;;27.01;31.80;98209.94;4965752;28;20047;-71
2022/09/18 08:14:08;;;;;;;7.05;3.47;;;;;;;27.23;31.11;98202.72;4953891;28;20477;-73
2022/09/18 08:16:38;;;;;;;6.75;5.43;;;;;;;28.56;28.81;98203.34;4935485;28;20175;-71
2022/09/18 08:19:24;;;;;;;10.98;4.45;;;;;;;28.16;29.34;98190.56;4939700;28;20149;-70
2022/09/18 08:21:57;;;;;;;11.38;3.80;;;;;;;27.47;29.35;98176.13;4936170;28;20049;-72
2022/09/18 08:24:23;;;;;;;12.40;4.22;;;;;;;26.52;31.30;98178.53;4948914;28;20392;-71
2022/09/18 08:26:49;;;;;;;14.60;4.93;;;;;;;26.14;31.87;98163.31;4949752;28;20407;-71
2022/09/18 08:29:17;;;;;;;14.38;4.38;;;;;;;25.90;32.61;98151.66;4944742;28;20049;-71
2022/09/18 08:31:49;;;;;;;9.00;5.10;;;;;;;25.74;32.83;98152.94;4949976;28;20047;-70
2022/09/18 08:34:18;;;;;;;10.32;4.80;;;;;;;25.58;32.98;98142.56;4951872;28;20048;-71
2022/09/18 08:36:44;;;;;;;10.80;4.35;;;;;;;25.32;33.54;98147.47;4926634;28;20444;-71
2022/09/18 08:39:45;;;;;;;11.85;4.78;;;;;;;24.94;34.10;98140.22;4951145;28;20053;-72
2022/09/18 08:42:46;;;;;;;8.48;4.50;;;;;;;24.86;34.48;98133.50;4949514;28;20084;-71
2022/09/18 08:45:15;;;;;;;8.93;4.53;;;;;;;23.91;36.23;98117.91;4959350;28;20050;-71
2022/09/18 08:48:04;;;;;;;13.27;4.50;;;;;;;23.81;36.77;98142.38;4943177;28;20057;-71
2022/09/18 08:50:37;;;;;;;13.48;4.50;;;;;;;23.85;36.58;98140.72;4944167;28;20052;-71
2022/09/18 08:53:43;;;;;;;7.82;4.78;;;;;;;23.51;37.71;98134.38;4943124;28;20132;-71
2022/09/18 08:56:23;;;;;;;9.27;4.32;;;;;;;23.05;38.47;98130.97;4977402;28;20099;-70
2022/09/18 08:59:35;;;;;;;7.00;4.68;;;;;;;22.71;39.27;98134.56;4961421;28;20048;-70
2022/09/18 09:02:15;;;;;;;7.63;5.10;;;;;;;21.36;42.24;98152.03;4943742;28;20152;-70
2022/09/18 09:04:42;;;;;;;9.68;5.35;;;;;;;20.74;44.08;98142.97;4959282;28;20050;-70
2022/09/18 09:07:36;;;;;;;14.15;5.30;;;;;;;21.33;43.27;98138.25;4941616;28;20149;-70
2022/09/18 09:10:28;;;;;;;10.23;4.97;;;;;;;21.69;42.48;98131.91;4941949;28;20436;-70
2022/09/18 09:13:24;;;;;;;8.52;5.05;;;;;;;21.73;42.57;98126.81;4942055;28;20058;-70
2022/09/18 09:16:06;;;;;;;8.80;4.85;;;;;;;21.14;43.36;98104.69;4941682;28;20185;-71
2022/09/18 09:18:36;;;;;;;7.75;4.90;;;;;;;21.38;43.14;98116.66;4925874;28;20046;-71
2022/09/18 09:21:16;;;;;;;9.50;4.82;;;;;;;21.41;43.29;98116.13;4957646;28;20503;-72
2022/09/18 09:23:59;;;;;;;8.10;5.40;;;;;;;21.06;43.82;98106.00;4973944;28;20081;-70
2022/09/18 09:26:55;;;;;;;9.57;4.68;;;;;;;21.43;43.21;98092.38;4889306;28;20053;-70
2022/09/18 09:30:05;;;;;;;7.10;4.47;;;;;;;21.61;42.64;98098.13;4936450;28;20045;-70
2022/09/18 09:33:21;;;;;;;8.40;4.40;;;;;;;21.44;42.95;98078.63;4942505;28;20459;-70
2022/09/18 09:36:17;;;;;;;8.98;4.50;;;;;;;21.24;43.54;98065.03;4962990;28;20038;-70
2022/09/18 09:38:54;;;;;;;11.00;4.80;;;;;;;21.76;42.77;98091.97;4943299;28;20050;-71
2022/09/18 09:41:33;;;;;;;10.95;4.72;;;;;;;21.85;42.85;98090.34;4928068;28;20042;-71
2022/09/18 09:44:13;;;;;;;10.73;4.38;;;;;;;21.66;42.57;98094.63;4959527;28;20056;-70
2022/09/18 09:46:52;;;;;;;10.10;4.22;;;;;;;21.54;43.18;98077.84;4943397;28;20058;-70
2022/09/18 09:49:31;;;;;;;14.35;4.53;;;;;;;21.12;43.58;98066.31;4975852;28;20039;-71
2022/09/18 09:52:04;;;;;;;7.47;4.07;;;;;;;21.25;43.60;98072.03;4927801;28;20053;-69
2022/09/18 09:54:31;;;;;;;8.13;4.50;;;;;;;20.66;44.65;98062.53;4943048;28;20112;-70
2022/09/18 09:57:10;;;;;;;8.95;4.40;;;;;;;20.56;45.24;98057.06;4959918;28;20184;-70
2022/09/18 10:00:04;;;;;;;8.18;4.60;;;;;;;20.89;44.57;98054.03;4992333;28;20428;-71
2022/09/18 10:02:50;;;;;;;8.82;4.53;;;;;;;21.22;44.05;98053.69;4976769;28;20054;-70
2022/09/18 10:05:39;;;;;;;11.25;4.60;;;;;;;21.53;43.57;98058.09;4943938;28;20106;-70
2022/09/18 10:08:12;;;;;;;11.05;5.00;;;;;;;21.13;44.20;98051.75;4959234;28;20073;-70
2022/09/18 10:10:45;;;;;;;11.38;5.35;;;;;;;21.37;44.03;98056.44;4942864;28;20050;-70
2022/09/18 10:13:26;;;;;;;10.63;5.32;;;;;;;21.27;44.47;98058.28;4959184;28;20165;-71
2022/09/18 10:16:01;;;;;;;14.25;6.30;;;;;;;21.32;44.44;98052.91;4959511;28;20114;-70
2022/09/18 10:18:34;;;;;;;12.30;7.88;;;;;;;21.28;44.61;98041.03;4942113;28;20387;-70
2022/09/18 10:21:09;;;;;;;13.43;8.30;;;;;;;21.25;44.47;98044.25;4945051;28;20057;-70
2022/09/18 10:23:40;;;;;;;15.00;8.52;;;;;;;21.19;44.57;98029.91;4962336;28;20049;-70
2022/09/18 10:26:12;;;;;;;15.63;8.57;;;;;;;20.90;45.27;98034.06;4964781;28;20042;-70
2022/09/18 10:28:38;;;;;;;14.90;8.65;;;;;;;20.53;45.58;98008.22;4947967;28;20374;-71
2022/09/18 10:31:09;;;;;;;18.52;9.18;;;;;;;20.89;45.40;98016.25;4963515;28;20042;-70
2022/09/18 10:33:39;;;;;;;22.83;10.23;;;;;;;21.06;44.86;98024.19;4948678;28;20049;-71
2022/09/18 10:36:11;;;;;;;13.75;8.45;;;;;;;20.82;45.04;98017.59;4947935;28;20046;-70
2022/09/18 10:38:38;;;;;;;16.73;9.40;;;;;;;20.78;45.53;98011.88;4963657;28;20095;-70
2022/09/18 10:41:36;;;;;;;15.30;8.65;;;;;;;21.07;44.93;98006.91;4937584;28;20543;-71
2022/09/18 10:44:26;;;;;;;17.48;10.27;;;;;;;21.03;44.87;98003.13;4979113;28;20077;-69
2022/09/18 10:47:25;;;;;;;19.10;10.30;;;;;;;20.77;45.37;98004.06;4963335;28;20082;-70
2022/09/18 10:50:20;;;;;;;14.23;9.57;;;;;;;20.84;45.41;98004.63;4928009;28;20074;-71
2022/09/18 10:52:52;;;;;;;18.95;10.15;;;;;;;20.72;45.77;97998.63;4978126;28;20054;-71
2022/09/18 10:55:29;;;;;;;14.97;10.20;;;;;;;20.76;45.94;97988.91;4930863;28;20204;-71
2022/09/18 10:58:11;;;;;;;15.23;9.82;;;;;;;20.79;45.54;97973.03;4960471;28;20050;-70
2022/09/18 11:00:40;;;;;;;15.00;9.23;;;;;;;20.74;45.98;97983.00;4960160;28;20046;-71
2022/09/18 11:03:37;;;;;;;11.70;8.43;;;;;;;20.93;45.50;97982.25;4944560;28;20088;-71
2022/09/18 11:06:08;;;;;;;16.52;9.27;;;;;;;20.90;45.69;97969.31;4959162;28;20535;-69
2022/09/18 11:08:36;;;;;;;14.43;8.73;;;;;;;20.77;45.50;97950.88;4945921;28;20116;-70
2022/09/18 11:11:24;;;;;;;12.43;7.75;;;;;;;21.00;45.58;97980.16;4962544;28;20096;-70
2022/09/18 11:14:19;;;;;;;14.57;7.63;;;;;;;21.12;45.24;97974.53;4945638;28;20088;-70
2022/09/18 11:16:58;;;;;;;12.30;7.07;;;;;;;20.99;45.71;97959.66;4940380;28;20050;-70
2022/09/18 11:19:32;;;;;;;14.05;6.22;;;;;;;20.98;45.80;97957.22;4930418;28;20048;-72
2022/09/18 11:22:04;;;;;;;10.85;6.65;;;;;;;20.90;45.93;97950.41;4946743;28;20046;-71
2022/09/18 11:24:37;;;;;;;11.63;6.15;;;;;;;20.91;45.83;97946.63;4962579;28;20551;-71
2022/09/18 11:27:21;;;;;;;8.50;5.25;;;;;;;21.01;45.46;97940.47;4946225;28;20072;-71
2022/09/18 11:29:48;;;;;;;14.32;6.40;;;;;;;20.69;46.08;97937.91;4961499;28;20133;-74
2022/09/18 11:32:24;;;;;;;9.57;5.30;;;;;;;20.86;46.16;97933.13;4945705;28;20057;-78
2022/09/18 11:34:56;;;;;;;7.70;5.18;;;;;;;20.91;46.11;97927.72;4961927;28;20042;-76
2022/09/18 11:37:32;;;;;;;9.88;5.43;;;;;;;20.92;46.07;97923.16;4965181;28;20046;-74
2022/09/18 11:40:07;;;;;;;10.23;5.45;;;;;;;20.92;46.06;97915.88;4976960;28;20058;-75
2022/09/18 11:42:43;;;;;;;11.73;5.57;;;;;;;20.92;46.34;97906.97;4914122;28;20042;-75
2022/09/18 11:45:23;;;;;;;10.85;5.47;;;;;;;20.93;46.36;97909.41;4938510;28;20166;-75
2022/09/18 11:47:53;;;;;;;9.70;5.38;;;;;;;20.77;47.07;97906.94;4954572;28;20141;-75
2022/09/18 11:50:22;;;;;;;15.63;6.43;;;;;;;20.65;47.86;97898.25;4938620;28;20062;-76
2022/09/18 11:52:53;;;;;;;11.13;6.25;;;;;;;20.67;47.32;97888.00;4922019;28;20043;-74
2022/09/18 11:55:31;;;;;;;12.70;7.00;;;;;;;20.71;47.58;97892.59;4956207;28;20066;-75